Oldenzaal, Netherlands
Current Conditions -  °F | °C
As of 2:20 AM on Tuesday 25 Nov 2014 (Local Time) from EDDG Reporting Station
Light Fog Light Fog  
Wind Chill: 32°   Ceiling: Unl
Heat Index: 32°   Visibility: 3mi
Dew Point: 32°   Wind: 2mph
Humidity: 100%   Direction: 70°ENE
Pressure: 30.33"   Gusts: NA
Location:  52.31°N, 6.93°E
Report Text: EDDG 250120Z 07002KT 5000 0800NE R25/0650N BCFG MIFG BR NSC M00/M00 Q1027 TEMPO 0700 FG
Loading
Personal Weather Stations






























Interactive Weather Map New forecast layout! Learn more

10-Day Weather Forecast

Advertisements
Track Severe Weather on mobile